Latest Weather Observations for Cummins Airport

IDS60801

Issued at 8:05 pm CST Tuesday 29 July 2014 (issued every 30 minutes, with the page automatically refreshed every 10 minutes)

About weather observations | Map of weather stations | Latest weather observations for SA | Other Formats
Station Details ID: 018217 Name: CUMMINS AERO Lat: -34.25 Lon: 135.71 Height: 60.11 m
Data from the previous 72 hours. | See also: Recent months at Cummins Airport
Date/Time
CST
Temp
°C
App
Temp
°C
Dew
Point
Rel
Hum
%
Delta-T
°C
Wind Press
QNH
hPa
Press
MSL
hPa
Rain
since 9 am
mm
Dir
 
Spd
km/h
Gust
km/h
Spd
kts
Gust
kts
29/08:00pm 14.8 11.8 14.8 100 0.0 NW 24 35 13 19 1018.9 - 1.2
29/07:30pm 14.7 10.9 14.7 100 0.0 NW 28 35 15 19 1018.6 1018.7 1.2
29/07:00pm 14.8 10.7 14.8 100 0.0 NW 30 39 16 21 1018.4 - 1.2
29/06:30pm 14.8 11.0 14.8 100 0.0 NW 28 37 15 20 1018.3 1018.4 1.2
29/06:00pm 14.9 11.2 14.9 100 0.0 NW 28 43 15 23 1018.2 1018.3 1.2
29/05:30pm 15.4 11.0 14.1 92 0.7 NW 30 43 16 23 1017.8 1017.9 1.0
29/05:00pm 15.5 10.7 14.0 91 0.8 NW 32 46 17 25 1017.8 - 1.0
29/04:30pm 15.9 10.0 13.6 86 1.3 NW 37 46 20 25 1017.5 1017.6 1.0
29/04:07pm 16.0 11.0 13.3 84 1.5 WNW 32 50 17 27 1017.6 - 1.0
29/04:00pm 16.0 10.8 13.5 85 1.4 WNW 33 48 18 26 1017.6 - 1.0
29/03:30pm 16.4 10.9 13.5 83 1.6 WNW 35 52 19 28 1017.2 1017.3 1.0
29/03:00pm 16.7 10.4 13.4 81 1.9 WNW 39 54 21 29 1017.1 1017.2 1.0
29/02:30pm 16.9 11.3 13.4 80 2.0 WNW 35 54 19 29 1017.0 1017.1 1.0
29/02:22pm 16.9 11.4 13.6 81 1.9 WNW 35 54 19 29 1017.1 - 1.0
29/02:00pm 17.1 11.3 14.0 82 1.8 WNW 37 50 20 27 1017.0 - 1.0
29/01:30pm 16.9 10.7 13.8 82 1.8 NW 39 59 21 32 1016.9 1017.0 1.0
29/01:03pm 17.2 11.5 14.3 83 1.7 WNW 37 56 20 30 1017.0 - 1.0
29/01:00pm 17.1 11.0 14.0 82 1.8 WNW 39 56 21 30 1016.9 - 1.0
29/12:30pm 17.1 11.3 14.0 82 1.8 WNW 37 54 20 29 1017.1 1017.2 1.0
29/12:19pm 16.9 11.1 14.0 83 1.7 WNW 37 56 20 30 1017.3 - 1.0
29/12:00pm 17.1 11.1 14.4 84 1.5 WNW 39 56 21 30 1017.4 1017.5 1.0
29/11:49am 17.1 12.1 14.0 82 1.8 WNW 33 52 18 28 1017.6 - 1.0
29/11:30am 17.4 11.6 13.9 80 2.0 WNW 37 50 20 27 1017.5 1017.6 1.0
29/11:16am 17.1 10.8 13.4 79 2.1 WNW 39 57 21 31 1017.7 - 1.0
29/11:00am 16.7 12.1 15.1 90 0.9 WNW 33 46 18 25 1017.8 - 1.0
29/10:30am 15.7 12.6 15.7 100 0.0 WNW 26 39 14 21 1018.0 1018.1 1.0
29/10:00am 14.8 9.5 14.3 97 0.3 WNW 35 50 19 27 1017.9 - 1.0
29/09:53am 14.8 10.7 14.8 100 0.0 WNW 30 48 16 26 1017.9 - 1.0
29/09:30am 14.3 10.0 14.3 100 0.0 WNW 30 44 16 24 1018.0 1018.1 1.0
29/09:11am 14.1 10.1 14.1 100 0.0 WNW 28 50 15 27 1017.8 - 0.4
29/09:00am 14.6 11.5 14.6 100 0.0 WNW 24 32 13 17 1017.8 1017.9 0.2
29/08:30am 14.2 11.7 14.2 100 0.0 WNW 20 33 11 18 1017.4 1017.5 0.2
29/08:00am 14.1 11.6 14.1 100 0.0 WNW 20 28 11 15 1017.2 - 0.2
29/07:30am 13.8 11.2 13.8 100 0.0 WNW 20 30 11 16 1016.9 1017.0 0.2
29/07:00am 14.1 11.2 14.1 100 0.0 WNW 22 33 12 18 1016.6 - 0.0
29/06:30am 14.0 11.5 14.0 100 0.0 NW 20 26 11 14 1016.1 1016.1 0.0
29/06:00am 13.9 11.0 13.9 100 0.0 NW 22 30 12 16 1015.9 1015.9 0.0
29/05:30am 13.6 10.9 13.6 100 0.0 NW 20 28 11 15 1015.8 1015.8 0.0
29/05:00am 13.2 10.6 13.2 100 0.0 WNW 19 26 10 14 1015.6 - 0.0
29/04:30am 13.1 10.8 13.1 100 0.0 NW 17 26 9 14 1015.9 1015.9 0.0
29/04:00am 12.9 10.2 12.9 100 0.0 NW 19 26 10 14 1015.8 - 0.0
29/03:30am 12.7 9.9 12.7 100 0.0 NW 19 24 10 13 1015.7 1015.7 0.0
29/03:00am 12.2 10.4 12.2 100 0.0 NW 13 19 7 10 1015.9 1015.9 0.0
29/02:30am 9.2 7.3 9.2 100 0.0 NNE 9 13 5 7 1016.0 1016.0 0.0
29/02:00am 9.5 8.1 9.5 100 0.0 N 7 11 4 6 1016.1 - 0.0
29/01:30am 10.6 8.0 10.6 100 0.0 N 15 19 8 10 1016.1 1016.1 0.0
29/01:00am 11.0 7.7 11.0 100 0.0 NNW 19 28 10 15 1016.4 - 0.0
29/12:30am 10.7 7.3 10.7 100 0.0 N 19 24 10 13 1016.5 1016.6 0.0
29/12:00am 10.7 7.7 10.7 100 0.0 NNW 17 24 9 13 1016.6 1016.7 0.0
 
Date/Time
CST
Temp
°C
App
Temp
°C
Dew
Point
Rel
Hum
%
Delta-T
°C
Wind Press
QNH
hPa
Press
MSL
hPa
Rain
since 9 am
mm
Dir
 
Spd
km/h
Gust
km/h
Spd
kts
Gust
kts
28/11:30pm 10.9 7.9 10.6 98 0.2 NNW 17 22 9 12 1017.1 1017.2 0.0
28/11:00pm 11.1 7.6 10.2 94 0.5 NNW 19 26 10 14 1017.0 - 0.0
28/10:30pm 11.1 7.4 10.0 93 0.6 NNW 20 28 11 15 1017.0 1017.1 0.0
28/10:00pm 10.8 7.2 9.7 93 0.6 NNW 19 24 10 13 1017.2 - 0.0
28/09:30pm 11.2 7.5 9.6 90 0.8 NNW 19 26 10 14 1017.4 1017.5 0.0
28/09:00pm 11.0 7.3 9.4 90 0.8 NNW 19 28 10 15 1017.3 1017.4 0.0
28/08:30pm 10.8 7.5 9.4 91 0.7 N 17 20 9 11 1017.1 1017.2 0.0
28/08:00pm 10.3 7.6 9.1 92 0.6 NNW 13 15 7 8 1017.1 - 0.0
28/07:30pm 10.3 7.4 8.2 87 1.0 NNW 13 15 7 8 1016.8 1016.9 0.0
28/07:00pm 11.9 8.6 8.2 78 1.8 NNW 15 19 8 10 1016.6 - 0.0
28/06:30pm 12.5 9.6 8.0 74 2.2 NW 13 20 7 11 1016.4 1016.5 0.0
28/06:00pm 13.5 9.8 7.9 69 2.8 NW 17 20 9 11 1016.2 1016.2 0.0
28/05:30pm 14.5 10.2 8.0 65 3.2 NW 20 28 11 15 1016.1 1016.1 0.0
28/05:00pm 15.5 11.6 8.5 63 3.6 NW 19 26 10 14 1016.1 - 0.0
28/04:30pm 16.2 11.4 8.7 61 3.8 NW 24 35 13 19 1016.0 1016.0 0.0
28/04:00pm 16.6 11.9 9.3 62 3.8 NW 24 35 13 19 1016.0 - 0.0
28/03:30pm 16.9 12.5 10.3 65 3.5 WNW 24 33 13 18 1016.0 1016.0 0.0
28/03:00pm 17.0 12.5 9.9 63 3.7 WNW 24 35 13 19 1016.0 1016.0 0.0
28/02:30pm 17.2 12.2 9.6 61 4.0 WNW 26 39 14 21 1016.0 1016.0 0.0
28/02:00pm 17.1 11.7 9.5 61 4.0 WNW 28 37 15 20 1016.2 - 0.0
28/01:30pm 17.2 12.9 10.6 65 3.5 WNW 24 33 13 18 1016.7 1016.8 0.0
28/01:00pm 17.3 12.7 11.1 67 3.4 WNW 26 35 14 19 1017.2 - 0.0
28/12:30pm 17.1 13.0 11.4 69 3.1 NW 24 32 13 17 1017.6 1017.7 0.0
28/12:00pm 16.4 12.1 10.9 70 2.9 NW 24 35 13 19 1017.9 1018.0 0.0
28/11:30am 15.8 12.2 11.8 77 2.2 NW 22 30 12 16 1018.2 1018.3 0.0
28/11:00am 15.2 12.0 11.8 80 1.8 NW 20 28 11 15 1018.4 - 0.0
28/10:30am 15.0 13.6 14.4 96 0.3 NNW 15 20 8 11 1018.7 1018.8 0.0
28/10:00am 13.7 12.4 13.7 100 0.0 NNW 13 19 7 10 1018.7 - 0.0
28/09:30am 12.4 11.1 12.4 100 0.0 NNW 11 15 6 8 1018.8 1018.9 0.0
28/09:00am 12.2 11.2 12.2 100 0.0 N 9 13 5 7 1018.7 1018.8 0.0
28/08:30am 12.0 10.9 12.0 100 0.0 NW 9 11 5 6 1018.9 1019.0 0.0
28/08:00am 11.3 10.0 11.3 100 0.0 NNW 9 11 5 6 1018.7 - 0.0
28/07:30am 11.8 10.7 11.8 100 0.0 NW 9 11 5 6 1018.4 1018.5 0.0
28/07:00am 11.5 9.9 11.5 100 0.0 N 11 15 6 8 1018.2 - 0.0
28/06:30am 11.2 9.5 11.2 100 0.0 N 11 15 6 8 1018.0 1018.1 0.0
28/06:00am 11.3 9.6 11.3 100 0.0 N 11 13 6 7 1017.9 1018.0 0.0
28/05:30am 11.2 10.3 11.2 100 0.0 N 7 9 4 5 1017.9 1018.0 0.0
28/05:00am 10.8 9.7 10.8 100 0.0 NW 7 9 4 5 1017.7 - 0.0
28/04:30am 11.6 10.4 11.6 100 0.0 NNW 9 11 5 6 1017.5 1017.6 0.0
28/04:00am 9.7 9.7 9.7 100 0.0 CALM 0 0 0 0 1017.7 - 0.0
28/03:30am 8.7 8.4 8.7 100 0.0 CALM 0 0 0 0 1017.8 1017.9 0.0
28/03:00am 8.3 7.9 8.3 100 0.0 CALM 0 0 0 0 1017.9 1018.0 0.0
28/02:30am 8.2 7.8 8.2 100 0.0 CALM 0 0 0 0 1018.0 1018.1 0.0
28/02:00am 9.0 7.6 9.0 100 0.0 NW 6 9 3 5 1018.2 - 0.0
28/01:30am 9.1 7.6 9.1 100 0.0 NW 7 9 4 5 1018.2 1018.3 0.0
28/01:00am 7.6 5.9 7.6 100 0.0 N 6 6 3 3 1018.4 - 0.0
28/12:30am 9.1 7.2 9.1 100 0.0 NW 9 9 5 5 1018.5 1018.6 0.0
28/12:00am 8.2 7.8 8.2 100 0.0 CALM 0 0 0 0 1018.4 1018.5 0.0
 
Date/Time
CST
Temp
°C
App
Temp
°C
Dew
Point
Rel
Hum
%
Delta-T
°C
Wind Press
QNH
hPa
Press
MSL
hPa
Rain
since 9 am
mm
Dir
 
Spd
km/h
Gust
km/h
Spd
kts
Gust
kts
27/11:30pm 8.4 8.0 8.4 100 0.0 CALM 0 6 0 3 1018.7 1018.8 0.0
27/11:00pm 9.6 7.8 9.6 100 0.0 NNW 9 11 5 6 1018.7 - 0.0
27/10:30pm 9.8 7.7 9.8 100 0.0 NNW 11 15 6 8 1018.6 1018.7 0.0
27/10:00pm 10.9 8.5 10.0 94 0.5 NNW 13 15 7 8 1018.8 - 0.0
27/09:30pm 10.6 8.4 9.5 93 0.6 N 11 13 6 7 1018.9 1019.0 0.0
27/09:00pm 10.9 8.8 9.7 92 0.6 N 11 11 6 6 1019.0 1019.1 0.0
27/08:30pm 10.6 10.4 9.0 90 0.8 CALM 0 0 0 0 1019.2 1019.3 0.0
27/08:00pm 12.0 10.2 9.6 85 1.2 NW 9 11 5 6 1019.1 - 0.0
27/07:30pm 10.7 9.2 9.3 91 0.7 W 7 9 4 5 1019.1 1019.2 0.0
27/07:00pm 11.5 8.9 9.2 86 1.2 NNE 13 15 7 8 1018.5 - 0.0
27/06:30pm 11.5 9.3 9.4 87 1.1 NNE 11 11 6 6 1018.2 1018.3 0.0
27/06:00pm 13.0 10.7 9.1 77 2.0 N 11 15 6 8 1018.0 1018.1 0.0
27/05:30pm 13.8 11.2 9.5 75 2.2 N 13 19 7 10 1017.9 1018.0 0.0
27/05:00pm 15.1 11.9 9.9 71 2.7 NNW 17 22 9 12 1017.8 - 0.0
27/04:30pm 16.5 13.2 9.7 64 3.6 NNW 17 22 9 12 1017.9 1018.0 0.0
27/04:00pm 17.6 13.5 8.7 56 4.6 NNW 20 30 11 16 1017.9 - 0.0
27/03:30pm 18.9 14.2 9.1 53 5.1 NNW 24 30 13 16 1017.7 1017.8 0.0
27/03:00pm 18.8 14.0 8.7 52 5.3 NW 24 33 13 18 1017.9 1018.0 0.0
27/02:30pm 18.5 15.8 10.3 59 4.4 NNW 15 24 8 13 1018.1 1018.2 0.0
27/02:00pm 17.2 14.0 10.1 63 3.8 NNW 17 22 9 12 1018.2 - 0.0
27/01:30pm 17.3 13.9 9.2 59 4.2 NNW 17 22 9 12 1018.5 1018.6 0.0
27/01:00pm 17.6 13.3 9.2 58 4.4 NNW 22 32 12 17 1018.7 - 0.0
27/12:30pm 17.6 13.2 9.0 57 4.5 NNW 22 30 12 16 1019.2 1019.3 0.0
27/12:00pm 16.9 12.8 10.1 64 3.6 N 22 35 12 19 1020.1 1020.2 0.0
27/11:30am 15.3 11.0 9.2 67 3.1 N 22 32 12 17 1020.5 1020.6 0.0
27/11:00am 15.2 10.5 9.1 67 3.1 NNW 24 33 13 18 1021.1 - 0.0
27/10:30am 14.2 9.3 8.6 69 2.8 NNW 24 33 13 18 1021.4 1021.5 0.0
27/10:00am 13.2 8.5 9.3 77 2.0 N 24 35 13 19 1021.4 - 0.0
27/09:30am 10.7 6.8 8.6 87 1.0 N 19 26 10 14 1021.7 1021.8 0.0
27/09:00am 9.9 7.0 8.2 89 0.8 N 13 19 7 10 1021.9 1022.0 0.0
27/08:30am 8.6 5.8 8.5 99 0.0 N 13 17 7 9 1021.9 1022.0 0.0
27/08:00am 8.1 4.8 8.1 100 0.0 NNE 15 20 8 11 1021.8 - 0.0
27/07:30am 7.4 5.1 7.4 100 0.0 NNE 9 13 5 7 1022.2 1022.3 0.0
27/07:00am 7.3 5.0 7.3 100 0.0 NNE 9 13 5 7 1022.1 - 0.0
27/06:30am 7.1 4.0 7.1 100 0.0 NNE 13 19 7 10 1021.7 1021.8 0.0
27/06:00am 6.1 3.1 6.1 100 0.0 NNE 11 13 6 7 1021.8 1021.9 0.0
27/05:30am 6.2 4.2 6.2 100 0.0 N 6 9 3 5 1021.9 1022.0 0.0
27/05:00am 7.4 5.1 7.4 100 0.0 N 9 13 5 7 1022.1 - 0.0
27/04:30am 7.9 4.6 7.9 100 0.0 NNE 15 20 8 11 1021.6 1021.7 0.0
27/04:00am 8.0 4.3 8.0 100 0.0 NNE 17 20 9 11 1021.6 - 0.0
27/03:30am 8.3 4.7 8.3 100 0.0 N 17 20 9 11 1022.2 1022.3 0.0
27/03:00am 7.8 4.1 7.8 100 0.0 N 17 20 9 11 1022.5 1022.6 0.0
27/02:30am 7.1 3.6 7.1 100 0.0 NNE 15 19 8 10 1022.9 1023.0 0.0
27/02:00am 7.0 3.8 7.0 100 0.0 NNE 13 15 7 8 1023.3 - 0.0
27/01:30am 6.6 4.1 6.6 100 0.0 NNE 9 11 5 6 1023.5 1023.6 0.0
27/01:00am 6.4 3.5 6.4 100 0.0 NNE 11 13 6 7 1023.6 - 0.0
27/12:30am 6.3 3.4 6.3 100 0.0 NNE 11 13 6 7 1023.8 1023.9 0.0
27/12:00am 6.8 4.0 6.8 100 0.0 NE 11 13 6 7 1024.0 1024.1 0.0
 
Date/Time
CST
Temp
°C
App
Temp
°C
Dew
Point
Rel
Hum
%
Delta-T
°C
Wind Press
QNH
hPa
Press
MSL
hPa
Rain
since 9 am
mm
Dir
 
Spd
km/h
Gust
km/h
Spd
kts
Gust
kts
26/11:30pm 7.0 3.8 7.0 100 0.0 NNE 13 15 7 8 1024.3 1024.4 0.0
26/11:00pm 6.4 3.9 6.4 100 0.0 NE 9 11 5 6 1024.4 - 0.0
26/10:30pm 7.1 4.3 7.1 100 0.0 NE 11 11 6 6 1024.6 1024.7 0.0
26/10:00pm 7.1 4.7 7.1 100 0.0 NNE 9 9 5 5 1024.7 - 0.0
26/09:30pm 7.7 5.1 7.7 100 0.0 NE 11 13 6 7 1024.7 1024.8 0.0
26/09:00pm 7.8 5.2 7.8 100 0.0 NE 11 11 6 6 1024.8 1024.9 0.0
26/08:30pm 8.3 5.8 8.3 100 0.0 NE 11 13 6 7 1024.7 1024.8 0.0

Other Formats:

Comma delimited format used in spreadsheet applications
http://www.bom.gov.au/fwo/IDS60801/IDS60801.95663.axf

JavaScript Object Notation format (JSON) in row-major order
http://www.bom.gov.au/fwo/IDS60801/IDS60801.95663.json